createdAt,value
2017-07-23T05:31:47.685Z,90
2017-07-23T05:32:13.152Z,95
2017-07-23T05:32:38.953Z,105
2017-07-23T05:33:04.481Z,110
2017-07-23T05:33:29.975Z,115
2017-07-23T05:33:55.492Z,120
2017-07-23T05:34:21.008Z,125
2017-07-23T05:34:46.560Z,130
2017-07-23T05:35:11.987Z,135
2017-07-23T05:35:37.511Z,135
2017-07-23T05:36:02.980Z,130
2017-07-23T05:36:28.455Z,125
2017-07-23T05:36:53.905Z,110
2017-07-23T05:37:19.366Z,100
2017-07-23T05:37:44.832Z,90
2017-07-23T05:38:10.336Z,80
2017-07-23T05:38:35.838Z,75
2017-07-23T05:39:01.298Z,75
2017-07-23T05:39:26.776Z,75
2017-07-23T05:39:52.226Z,70
2017-07-23T05:40:17.660Z,70
2017-07-23T05:40:43.212Z,70
2017-07-23T05:41:08.722Z,70
2017-07-23T05:41:34.333Z,70
2017-07-23T05:41:59.782Z,110
2017-07-23T05:42:25.241Z,75
2017-07-23T05:42:50.714Z,75
2017-07-23T05:43:16.203Z,105
2017-07-23T05:43:41.707Z,135
2017-07-23T05:44:07.168Z,100
2017-07-23T05:44:32.619Z,105
2017-07-23T05:44:58.069Z,120
2017-07-23T05:45:23.528Z,110
2017-07-23T05:45:49.005Z,90
2017-07-23T05:46:14.478Z,105
2017-07-23T05:46:39.964Z,95
2017-07-23T05:47:05.464Z,105
2017-07-23T05:47:31.016Z,115
2017-07-23T05:47:56.508Z,150
2017-07-23T05:48:22.020Z,115
2017-07-23T05:48:47.505Z,135
2017-07-23T05:49:13.016Z,160
2017-07-23T05:49:38.494Z,100
2017-07-23T05:50:03.944Z,145
2017-07-23T05:50:29.450Z,145
2017-07-23T05:50:54.918Z,120
2017-07-23T05:51:20.378Z,115
2017-07-23T05:51:45.869Z,130
2017-07-23T05:52:11.333Z,135
2017-07-23T05:52:36.797Z,135
2017-07-23T05:53:02.263Z,80
2017-07-23T05:53:27.759Z,110
2017-07-23T05:53:53.238Z,135
2017-07-23T05:54:18.685Z,135
2017-07-23T05:54:44.197Z,135
2017-07-23T05:55:09.685Z,135
2017-07-23T05:55:35.152Z,135
2017-07-23T05:56:00.632Z,135
2017-07-23T05:56:26.094Z,130
2017-07-23T05:56:51.616Z,130
2017-07-23T05:57:17.125Z,135
2017-07-23T05:57:42.572Z,115
2017-07-23T05:58:08.062Z,75
2017-07-23T05:58:33.557Z,75
2017-07-23T05:58:59.028Z,70
2017-07-23T05:59:24.513Z,90
2017-07-23T05:59:50.105Z,130
2017-07-23T06:00:15.585Z,115
2017-07-23T06:00:41.044Z,110
2017-07-23T06:01:06.518Z,120
2017-07-23T06:01:31.989Z,140
2017-07-23T06:01:57.529Z,140
2017-07-23T06:02:23.026Z,145
2017-07-23T06:02:48.483Z,95
2017-07-23T06:03:13.972Z,115
2017-07-23T06:03:39.496Z,145
2017-07-23T06:04:04.958Z,145
2017-07-23T06:04:30.427Z,145
2017-07-23T06:04:55.910Z,150
2017-07-23T06:05:21.392Z,150
2017-07-23T06:05:46.879Z,150
2017-07-23T06:06:12.371Z,150
2017-07-23T06:06:37.825Z,150
2017-07-23T06:07:03.310Z,160
2017-07-23T06:07:28.775Z,150
2017-07-23T06:07:54.282Z,155
2017-07-23T06:08:19.774Z,155
2017-07-23T06:08:45.251Z,95
2017-07-23T06:09:10.742Z,140
2017-07-23T06:09:36.198Z,105
2017-07-23T06:10:01.718Z,125
2017-07-23T06:10:27.140Z,150
2017-07-23T06:10:52.648Z,155
2017-07-23T06:11:18.142Z,165
2017-07-23T06:11:43.624Z,165
2017-07-23T06:12:09.111Z,165
2017-07-23T06:12:34.546Z,165
2017-07-23T06:13:00.028Z,165
2017-07-23T06:13:25.510Z,165
2017-07-23T06:13:50.963Z,165
2017-07-23T06:14:16.450Z,165
2017-07-23T06:14:41.949Z,165
2017-07-23T06:15:07.394Z,165
2017-07-23T06:15:32.822Z,160
2017-07-23T06:15:58.309Z,115
2017-07-23T06:16:23.748Z,140
2017-07-23T06:16:49.219Z,160
2017-07-23T06:17:14.680Z,155
2017-07-23T06:17:40.168Z,145
2017-07-23T06:18:05.635Z,165
2017-07-23T06:18:31.118Z,175
2017-07-23T06:18:56.573Z,180
2017-07-23T06:19:22.073Z,150
2017-07-23T06:19:47.551Z,185
2017-07-23T06:20:13.028Z,190
2017-07-23T06:21:21.753Z,195
2017-07-23T06:21:47.211Z,210
2017-07-23T06:22:12.694Z,215
2017-07-23T06:22:38.151Z,225
2017-07-23T06:23:03.623Z,215
2017-07-23T06:23:29.086Z,240
2017-07-23T06:23:54.557Z,215
2017-07-23T06:24:20.073Z,240
2017-07-23T06:24:45.596Z,240
2017-07-23T06:25:11.068Z,240
2017-07-23T06:25:36.550Z,240
2017-07-23T06:27:01.473Z,145
2017-07-23T06:27:26.970Z,200
2017-07-23T06:27:52.461Z,200
2017-07-23T06:28:18.044Z,205
2017-07-23T06:28:43.531Z,170
2017-07-23T06:29:09.055Z,215
2017-07-23T06:29:34.532Z,165
2017-07-23T06:30:00.000Z,170
2017-07-23T06:30:25.469Z,185
2017-07-23T06:30:50.953Z,225
2017-07-23T06:31:16.419Z,205
2017-07-23T06:31:41.864Z,225
2017-07-23T06:32:07.350Z,175
2017-07-23T06:32:32.853Z,200
2017-07-23T06:32:58.349Z,175
2017-07-23T06:33:23.843Z,235
2017-07-23T06:33:49.347Z,155
2017-07-23T06:34:14.826Z,185
2017-07-23T06:34:40.317Z,170
2017-07-23T06:35:05.793Z,215
2017-07-23T06:35:31.304Z,185
2017-07-23T06:35:56.729Z,170
2017-07-23T06:36:22.234Z,135
2017-07-23T06:36:47.786Z,170
2017-07-23T06:37:13.215Z,155
2017-07-23T06:37:38.726Z,145
2017-07-23T06:38:04.279Z,145
2017-07-23T06:38:29.721Z,140
2017-07-23T06:38:55.200Z,135
2017-07-23T06:39:20.696Z,185
2017-07-23T06:39:46.233Z,180
2017-07-23T06:40:11.699Z,145
2017-07-23T06:40:37.146Z,145
2017-07-23T06:41:02.605Z,150
2017-07-23T06:41:28.061Z,140
2017-07-23T06:41:53.583Z,145
2017-07-23T06:42:19.051Z,145
2017-07-23T06:42:44.540Z,145
2017-07-23T06:43:10.091Z,140
2017-07-23T06:43:35.456Z,140
2017-07-23T06:44:00.928Z,140
2017-07-23T06:44:26.400Z,140
2017-07-23T06:44:51.869Z,140
2017-07-23T06:45:17.421Z,95
2017-07-23T06:45:42.880Z,140
2017-07-23T06:46:08.405Z,140
2017-07-23T06:46:33.857Z,140
2017-07-23T06:46:59.361Z,140
2017-07-23T06:47:24.867Z,140
2017-07-23T06:47:50.326Z,140
2017-07-23T06:48:15.775Z,140
2017-07-23T06:48:41.263Z,140
2017-07-23T06:49:06.739Z,80
2017-07-23T06:49:32.233Z,145
2017-07-23T06:49:57.739Z,145
2017-07-23T06:50:23.207Z,145
2017-07-23T06:50:48.643Z,145
2017-07-23T06:51:14.163Z,145
2017-07-23T06:51:39.587Z,120
2017-07-23T06:52:05.031Z,140
2017-07-23T06:52:30.495Z,140
2017-07-23T06:53:39.190Z,145
2017-07-23T06:54:04.642Z,145
2017-07-23T06:54:30.177Z,150
2017-07-23T06:54:55.636Z,145
2017-07-23T06:55:21.101Z,145
2017-07-23T06:55:46.607Z,145
2017-07-23T06:56:12.099Z,145
2017-07-23T06:56:37.572Z,145
2017-07-23T06:57:03.050Z,145
2017-07-23T06:57:28.605Z,75
2017-07-23T06:57:54.004Z,145
2017-07-23T06:58:19.503Z,145
2017-07-23T06:58:44.953Z,145
2017-07-23T06:59:10.439Z,80
2017-07-23T06:59:35.919Z,145
2017-07-23T07:00:01.361Z,150
2017-07-23T07:00:26.896Z,145
2017-07-23T07:00:52.338Z,145
2017-07-23T07:01:17.752Z,145
2017-07-23T07:01:43.246Z,145
2017-07-23T07:02:08.698Z,145
2017-07-23T07:02:34.165Z,160
2017-07-23T07:02:59.639Z,160
2017-07-23T07:03:25.226Z,145
2017-07-23T07:03:50.651Z,145
2017-07-23T07:04:16.168Z,145
2017-07-23T07:04:41.654Z,145
2017-07-23T07:05:07.102Z,145
2017-07-23T07:05:32.579Z,145
2017-07-23T07:05:58.015Z,145
2017-07-23T07:06:23.497Z,145
2017-07-23T07:06:49.308Z,145
2017-07-23T07:07:14.760Z,145
2017-07-23T07:07:40.449Z,145
2017-07-23T07:08:05.834Z,145
2017-07-23T07:08:31.348Z,145
2017-07-23T07:08:56.793Z,145
2017-07-23T07:09:22.601Z,90
2017-07-23T07:09:48.018Z,165
2017-07-23T07:10:14.308Z,145
2017-07-23T07:10:39.805Z,160
2017-07-23T07:11:05.311Z,165
2017-07-23T07:11:30.749Z,155
2017-07-23T07:11:56.357Z,145
2017-07-23T07:12:21.778Z,145
2017-07-23T07:12:47.275Z,145
2017-07-23T07:13:12.733Z,145
2017-07-23T07:13:38.214Z,145
2017-07-23T07:14:03.688Z,145
2017-07-23T07:14:29.180Z,130
2017-07-23T07:14:54.678Z,115
2017-07-23T07:15:20.200Z,145
2017-07-23T07:15:45.652Z,145
2017-07-23T07:16:11.078Z,85
2017-07-23T07:16:36.550Z,85
2017-07-23T07:17:02.011Z,155
2017-07-23T07:17:27.471Z,150
2017-07-23T07:17:52.929Z,150
2017-07-23T07:18:18.431Z,150
2017-07-23T07:18:43.883Z,145
2017-07-23T07:19:09.351Z,175
2017-07-23T07:19:34.837Z,195
2017-07-23T07:20:00.291Z,125
2017-07-23T07:20:25.842Z,180
2017-07-23T07:20:51.306Z,145
2017-07-23T07:21:16.760Z,90
2017-07-23T07:21:42.231Z,90
2017-07-23T07:22:07.712Z,155
2017-07-23T07:22:33.219Z,160
2017-07-23T07:22:58.678Z,175
2017-07-23T07:23:24.137Z,155
2017-07-23T07:23:49.609Z,205
2017-07-23T07:24:15.107Z,170
2017-07-23T07:24:40.601Z,170
2017-07-23T07:25:06.065Z,180
2017-07-23T07:25:31.544Z,200
2017-07-23T07:25:57.001Z,220
2017-07-23T07:26:22.514Z,185
2017-07-23T07:26:47.954Z,165
2017-07-23T07:27:13.426Z,175
2017-07-23T07:27:38.945Z,180
2017-07-23T07:28:04.420Z,205
2017-07-23T07:28:29.889Z,195
2017-07-23T07:28:55.366Z,245
2017-07-23T07:29:20.853Z,340
2017-07-23T07:29:46.311Z,320
2017-07-23T07:30:11.815Z,240
2017-07-23T07:30:37.302Z,205
2017-07-23T07:31:02.779Z,205
2017-07-23T07:31:28.255Z,220
2017-07-23T07:31:53.719Z,280
2017-07-23T07:32:19.175Z,290
2017-07-23T07:32:44.672Z,270
2017-07-23T07:33:10.168Z,230
2017-07-23T07:33:35.644Z,270
2017-07-23T07:34:01.099Z,315
2017-07-23T07:34:26.582Z,270
2017-07-23T07:34:52.052Z,255
2017-07-23T07:35:17.524Z,260
2017-07-23T07:35:42.975Z,230
2017-07-23T07:36:08.459Z,290
2017-07-23T07:36:33.943Z,325
2017-07-23T07:36:59.454Z,300
2017-07-23T07:37:24.915Z,310
2017-07-23T07:37:50.402Z,260
2017-07-23T07:38:15.835Z,225
2017-07-23T07:38:41.325Z,190
2017-07-23T07:39:06.762Z,210
2017-07-23T07:39:32.230Z,230
2017-07-23T07:39:57.676Z,225
2017-07-23T07:40:23.174Z,205
2017-07-23T07:41:52.244Z,240
2017-07-23T07:42:17.714Z,250
2017-07-23T07:42:43.210Z,250
2017-07-23T07:43:08.659Z,250
2017-07-23T07:43:34.157Z,255
2017-07-23T07:43:59.599Z,315
2017-07-23T07:44:25.121Z,345
2017-07-23T07:44:50.603Z,350
2017-07-23T07:45:16.056Z,345
2017-07-23T07:45:41.557Z,335
2017-07-23T07:46:07.094Z,335
2017-07-23T07:46:32.575Z,345
2017-07-23T07:46:58.060Z,345
2017-07-23T07:47:23.545Z,330
2017-07-23T07:47:49.016Z,345
2017-07-23T07:48:14.484Z,295
2017-07-23T07:48:39.959Z,365
2017-07-23T07:49:05.442Z,360
2017-07-23T07:49:30.942Z,355
2017-07-23T07:49:56.405Z,340
2017-07-23T07:50:21.901Z,325
2017-07-23T07:50:47.335Z,315
2017-07-23T07:51:12.815Z,285
2017-07-23T07:51:38.315Z,265
2017-07-23T07:52:03.767Z,255
2017-07-23T07:52:29.224Z,235
2017-07-23T07:52:54.701Z,225
2017-07-23T07:53:20.201Z,225
2017-07-23T07:53:45.683Z,230
2017-07-23T07:54:11.195Z,205
2017-07-23T07:54:36.635Z,185
2017-07-23T07:55:02.095Z,210
2017-07-23T07:55:27.570Z,230
2017-07-23T07:55:53.028Z,235
2017-07-23T07:56:18.500Z,220
2017-07-23T07:56:43.946Z,190
2017-07-23T07:57:09.421Z,160
2017-07-23T07:57:34.941Z,160
2017-07-23T07:58:00.371Z,180
2017-07-23T07:58:25.877Z,225
2017-07-23T07:58:51.376Z,240
2017-07-23T07:59:16.867Z,240
2017-07-23T07:59:42.380Z,220
2017-07-23T08:00:07.849Z,225
2017-07-23T08:00:33.370Z,235
2017-07-23T08:00:58.876Z,250
2017-07-23T08:01:24.342Z,240
2017-07-23T08:01:49.808Z,235
2017-07-23T08:02:15.287Z,235
2017-07-23T08:02:40.780Z,225
2017-07-23T08:03:06.259Z,220
2017-07-23T08:03:31.739Z,220
2017-07-23T08:03:57.218Z,220
2017-07-23T08:04:22.706Z,210
2017-07-23T08:04:48.195Z,205
2017-07-23T08:05:13.644Z,195
2017-07-23T08:05:39.136Z,200
2017-07-23T08:06:04.596Z,190
2017-07-23T08:06:30.049Z,185
2017-07-23T08:06:55.547Z,185
2017-07-23T08:07:21.021Z,190
2017-07-23T08:07:46.480Z,205
2017-07-23T08:08:11.963Z,210
2017-07-23T08:08:37.453Z,200
2017-07-23T08:09:02.928Z,200
2017-07-23T08:09:28.428Z,220
2017-07-23T08:09:53.924Z,215
2017-07-23T08:10:19.388Z,215
2017-07-23T08:10:44.876Z,210
2017-07-23T08:11:10.361Z,215
2017-07-23T08:11:35.830Z,230
2017-07-23T08:12:01.298Z,230
2017-07-23T08:12:26.809Z,215
2017-07-23T08:12:52.291Z,210
2017-07-23T08:13:17.822Z,200
2017-07-23T08:13:43.282Z,190
2017-07-23T08:14:08.744Z,185
2017-07-23T08:14:34.199Z,170
2017-07-23T08:14:59.689Z,165
2017-07-23T08:15:25.144Z,145
2017-07-23T08:15:50.618Z,145
2017-07-23T08:16:16.073Z,130
2017-07-23T08:16:41.562Z,120
2017-07-23T08:17:07.041Z,120
2017-07-23T08:17:32.560Z,110
2017-07-23T08:17:58.049Z,115
2017-07-23T08:18:23.510Z,125
2017-07-23T08:18:48.982Z,120
2017-07-23T08:19:14.457Z,115
2017-07-23T08:19:39.894Z,115
2017-07-23T08:20:05.377Z,115
2017-07-23T08:20:30.873Z,120
2017-07-23T08:20:56.360Z,120
2017-07-23T08:21:21.845Z,115
2017-07-23T08:21:47.344Z,105
2017-07-23T08:22:12.847Z,95
2017-07-23T08:22:38.307Z,95
2017-07-23T08:23:03.789Z,100
2017-07-23T08:23:29.351Z,95
2017-07-23T08:23:54.855Z,95
2017-07-23T08:24:20.307Z,95
2017-07-23T08:24:45.737Z,95
2017-07-23T08:25:11.189Z,85
2017-07-23T08:25:36.686Z,85
2017-07-23T08:26:02.159Z,85
2017-07-23T08:26:27.621Z,90
2017-07-23T08:26:53.106Z,90
2017-07-23T08:27:18.588Z,95
2017-07-23T08:27:44.030Z,100
2017-07-23T08:28:09.514Z,95
2017-07-23T08:28:34.984Z,100
2017-07-23T08:29:00.442Z,120
2017-07-23T08:29:25.909Z,130
2017-07-23T08:29:51.403Z,130
2017-07-23T08:30:16.888Z,130
2017-07-23T08:30:42.353Z,130
2017-07-23T08:32:01.261Z,125
2017-07-23T08:32:26.742Z,125
2017-07-23T08:32:52.219Z,125
2017-07-23T08:33:17.668Z,125
2017-07-23T08:33:43.147Z,125
2017-07-23T08:34:08.595Z,125
2017-07-23T08:34:34.093Z,125
2017-07-23T08:34:59.524Z,125
2017-07-23T08:35:25.034Z,125
2017-07-23T08:35:50.502Z,125
2017-07-23T08:36:15.998Z,125
2017-07-23T08:36:41.552Z,125
2017-07-23T08:37:07.021Z,120
2017-07-23T08:37:32.525Z,120
2017-07-23T08:37:57.964Z,125
2017-07-23T08:38:23.456Z,125
2017-07-23T08:38:48.967Z,125
2017-07-23T08:39:14.415Z,120
2017-07-23T08:39:39.904Z,120
2017-07-23T08:40:05.366Z,120
2017-07-23T08:40:30.877Z,120
2017-07-23T08:40:56.350Z,120
2017-07-23T08:41:21.842Z,120
2017-07-23T08:41:47.327Z,120
2017-07-23T08:42:12.812Z,125
2017-07-23T08:42:38.298Z,125
2017-07-23T08:43:03.810Z,125
2017-07-23T08:43:29.327Z,125
2017-07-23T08:43:54.815Z,125
2017-07-23T08:44:20.312Z,125
2017-07-23T08:44:45.814Z,125
2017-07-23T08:45:11.271Z,125
2017-07-23T08:45:36.739Z,130
2017-07-23T08:46:02.208Z,155
2017-07-23T08:46:27.667Z,140
2017-07-23T08:46:53.204Z,85
2017-07-23T08:47:18.705Z,85
2017-07-23T08:47:44.208Z,80
2017-07-23T08:48:09.651Z,80
2017-07-23T08:48:35.139Z,95
2017-07-23T08:49:00.626Z,100
2017-07-23T08:49:26.071Z,135
2017-07-23T08:49:51.567Z,165
2017-07-23T08:50:17.026Z,185
2017-07-23T08:50:42.535Z,175
2017-07-23T08:51:08.001Z,140
2017-07-23T08:51:33.485Z,165
2017-07-23T08:51:58.958Z,160
2017-07-23T08:52:24.444Z,170
2017-07-23T08:52:49.933Z,145
2017-07-23T08:53:15.417Z,165
2017-07-23T08:53:40.916Z,150
2017-07-23T08:54:06.401Z,130
2017-07-23T08:54:31.876Z,115
2017-07-23T08:54:57.377Z,110
2017-07-23T08:55:22.873Z,115
2017-07-23T08:55:48.399Z,130
2017-07-23T08:56:13.896Z,145
2017-07-23T08:56:39.365Z,155
2017-07-23T08:57:04.843Z,175
2017-07-23T08:57:30.321Z,170
2017-07-23T08:57:55.806Z,180
2017-07-23T08:58:21.293Z,175
2017-07-23T08:58:46.774Z,160
2017-07-23T08:59:12.246Z,160
2017-07-23T08:59:37.734Z,190
2017-07-23T09:00:03.224Z,220
2017-07-23T09:00:28.701Z,245
2017-07-23T09:00:54.188Z,260
2017-07-23T09:01:19.672Z,250
2017-07-23T09:01:45.188Z,250
2017-07-23T09:02:10.654Z,265
2017-07-23T09:02:36.124Z,210
2017-07-23T09:03:01.595Z,200
2017-07-23T09:03:27.094Z,175
2017-07-23T09:03:52.599Z,160
2017-07-23T09:04:18.074Z,150
2017-07-23T09:04:43.567Z,135
2017-07-23T09:05:09.084Z,130
2017-07-23T09:05:34.567Z,125
2017-07-23T09:06:00.047Z,120
2017-07-23T09:06:25.534Z,105
2017-07-23T09:06:51.012Z,95
2017-07-23T09:07:16.514Z,95
2017-07-23T09:07:42.013Z,100
2017-07-23T09:08:07.482Z,105
2017-07-23T09:08:32.963Z,110
2017-07-23T09:08:58.444Z,115
2017-07-23T09:09:23.888Z,140
2017-07-23T09:09:49.379Z,190
2017-07-23T09:10:14.862Z,195
2017-07-23T09:10:40.333Z,250
2017-07-23T09:11:05.830Z,245
2017-07-23T09:11:31.319Z,195
2017-07-23T09:11:56.789Z,155
2017-07-23T09:12:22.272Z,170
2017-07-23T09:12:47.725Z,110
2017-07-23T09:13:13.219Z,95
2017-07-23T09:13:38.687Z,90
2017-07-23T09:14:04.151Z,85
2017-07-23T09:14:29.637Z,90
2017-07-23T09:14:55.111Z,90
2017-07-23T09:15:20.587Z,95
2017-07-23T09:15:46.027Z,100
2017-07-23T09:16:11.521Z,105
2017-07-23T09:16:37.015Z,105
2017-07-23T09:17:02.497Z,105
2017-07-23T09:17:27.972Z,105
2017-07-23T09:17:53.496Z,105
2017-07-23T09:18:18.987Z,120
2017-07-23T09:18:44.505Z,145
2017-07-23T09:19:09.975Z,150
2017-07-23T09:19:35.425Z,165
2017-07-23T09:20:00.898Z,195
2017-07-23T09:20:26.403Z,215
2017-07-23T09:20:51.880Z,175
2017-07-23T09:21:17.371Z,150
2017-07-23T09:21:42.825Z,130
2017-07-23T09:22:08.321Z,120
2017-07-23T09:22:33.802Z,110
2017-07-23T09:22:59.282Z,100
2017-07-23T09:23:24.750Z,95
2017-07-23T09:23:50.273Z,95
2017-07-23T09:24:15.692Z,100
2017-07-23T09:24:41.182Z,110
2017-07-23T09:25:06.728Z,120
2017-07-23T09:25:32.142Z,125
2017-07-23T09:25:57.639Z,130
2017-07-23T09:26:23.105Z,160
2017-07-23T09:26:48.614Z,140
2017-07-23T09:27:14.070Z,140
2017-07-23T09:27:39.562Z,135
2017-07-23T09:28:05.046Z,125
2017-07-23T09:28:30.497Z,125
2017-07-23T09:28:56.012Z,125
2017-07-23T09:29:21.478Z,125
2017-07-23T09:29:46.939Z,125
2017-07-23T09:30:12.412Z,125
2017-07-23T09:30:37.884Z,125
2017-07-23T09:31:03.364Z,130
2017-07-23T09:31:28.854Z,125
2017-07-23T09:31:54.362Z,125
2017-07-23T09:32:19.849Z,95
2017-07-23T09:32:45.336Z,95
2017-07-23T09:33:10.834Z,90
2017-07-23T09:33:36.309Z,90
2017-07-23T09:34:01.826Z,85
2017-07-23T09:34:27.272Z,85
2017-07-23T09:34:52.759Z,80
2017-07-23T09:35:18.220Z,90
2017-07-23T09:35:43.712Z,105
2017-07-23T09:36:09.215Z,110
2017-07-23T09:36:34.694Z,110
2017-07-23T09:37:00.153Z,95
2017-07-23T09:37:25.634Z,90
2017-07-23T09:37:51.098Z,95
2017-07-23T09:38:16.629Z,105
2017-07-23T09:38:42.113Z,100
2017-07-23T09:39:07.595Z,85
2017-07-23T09:39:33.065Z,70
2017-07-23T09:39:58.534Z,60
2017-07-23T09:40:24.013Z,70
2017-07-23T09:40:49.499Z,75
2017-07-23T09:41:14.976Z,80
2017-07-23T09:41:40.458Z,80
2017-07-23T09:42:05.929Z,75
2017-07-23T09:42:31.432Z,75
2017-07-23T09:42:56.946Z,80
2017-07-23T09:43:22.402Z,90
2017-07-23T09:43:47.856Z,95
2017-07-23T09:44:13.294Z,120
2017-07-23T09:44:38.744Z,145
2017-07-23T09:45:04.227Z,165
2017-07-23T09:45:29.700Z,170
2017-07-23T09:45:55.201Z,175
2017-07-23T09:46:20.642Z,175
2017-07-23T09:46:46.112Z,175
2017-07-23T09:47:11.570Z,175
2017-07-23T09:47:37.065Z,195
2017-07-23T09:48:02.541Z,210
2017-07-23T09:48:28.021Z,230
2017-07-23T09:48:53.508Z,245
2017-07-23T09:49:18.977Z,255
2017-07-23T09:49:44.462Z,250
2017-07-23T09:50:09.932Z,235
2017-07-23T09:50:35.425Z,230
2017-07-23T09:51:00.912Z,215
2017-07-23T09:51:26.367Z,195
2017-07-23T09:51:51.839Z,185
2017-07-23T09:52:17.304Z,175
2017-07-23T09:52:42.790Z,170
2017-07-23T09:53:08.252Z,165
2017-07-23T09:53:33.727Z,160
2017-07-23T09:53:59.200Z,160
2017-07-23T09:54:24.676Z,160
2017-07-23T09:54:50.165Z,160
2017-07-23T09:55:15.656Z,155
2017-07-23T09:55:41.117Z,145
2017-07-23T09:56:06.570Z,140
2017-07-23T09:56:32.063Z,140
2017-07-23T09:56:57.585Z,135
2017-07-23T09:57:23.073Z,135
2017-07-23T09:57:48.569Z,125
2017-07-23T09:58:14.045Z,120
2017-07-23T09:58:39.548Z,115
2017-07-23T09:59:05.017Z,110
2017-07-23T09:59:30.491Z,105
2017-07-23T09:59:55.972Z,100
2017-07-23T10:00:21.455Z,100
2017-07-23T10:00:46.952Z,105
2017-07-23T10:01:12.435Z,105
2017-07-23T10:01:37.897Z,105
2017-07-23T10:02:03.407Z,110
2017-07-23T10:02:28.882Z,115
2017-07-23T10:02:54.377Z,120
2017-07-23T10:04:18.348Z,125
2017-07-23T10:04:43.819Z,125
2017-07-23T10:05:09.264Z,120
2017-07-23T10:05:34.710Z,115
2017-07-23T10:06:00.162Z,110
2017-07-23T10:06:25.640Z,120
2017-07-23T10:06:51.091Z,150
2017-07-23T10:07:16.583Z,150
2017-07-23T10:07:42.017Z,150
2017-07-23T10:08:07.481Z,140
2017-07-23T10:08:32.968Z,130
2017-07-23T10:08:58.419Z,125
2017-07-23T10:09:23.906Z,130
2017-07-23T10:09:49.380Z,130
2017-07-23T10:10:14.851Z,145
2017-07-23T10:10:40.336Z,170
2017-07-23T10:11:05.796Z,215
2017-07-23T10:11:31.270Z,265
2017-07-23T10:11:56.730Z,265
2017-07-23T10:12:22.223Z,270
2017-07-23T10:12:47.717Z,270
2017-07-23T10:13:13.157Z,265
2017-07-23T10:13:38.633Z,260
2017-07-23T10:14:04.144Z,255
2017-07-23T10:14:29.596Z,270
2017-07-23T10:14:55.074Z,260
2017-07-23T10:15:20.558Z,230
2017-07-23T10:15:46.041Z,220
2017-07-23T10:16:11.521Z,205
2017-07-23T10:16:36.962Z,185
2017-07-23T10:17:02.444Z,175
2017-07-23T10:17:27.918Z,170
2017-07-23T10:17:53.398Z,165
2017-07-23T10:18:18.880Z,165
2017-07-23T10:18:44.398Z,155
2017-07-23T10:19:09.893Z,150
2017-07-23T10:19:35.362Z,135
2017-07-23T10:20:00.847Z,120
2017-07-23T10:20:26.334Z,105
2017-07-23T10:20:51.796Z,95
2017-07-23T10:21:17.293Z,80
2017-07-23T10:21:42.792Z,65
2017-07-23T10:22:08.260Z,55
2017-07-23T10:22:33.737Z,50
2017-07-23T10:23:57.707Z,30
2017-07-23T10:24:23.192Z,30
2017-07-23T10:24:48.682Z,40
2017-07-23T10:25:14.127Z,60
2017-07-23T10:25:39.632Z,80
2017-07-23T10:26:05.121Z,95
2017-07-23T10:26:30.580Z,110
2017-07-23T10:26:56.050Z,125
2017-07-23T10:27:21.532Z,135
2017-07-23T10:27:47.010Z,145
2017-07-23T10:28:12.495Z,145
2017-07-23T10:28:38.005Z,150
2017-07-23T10:29:03.478Z,150
2017-07-23T10:29:28.961Z,150
2017-07-23T10:29:54.427Z,150
2017-07-23T10:30:19.898Z,145
2017-07-23T10:30:45.377Z,135
2017-07-23T10:31:10.859Z,125
2017-07-23T10:31:36.319Z,115
2017-07-23T10:32:01.782Z,105
2017-07-23T10:32:27.250Z,95
2017-07-23T10:32:52.708Z,90
2017-07-23T10:33:18.210Z,85
2017-07-23T10:33:43.678Z,85
2017-07-23T10:34:09.154Z,85
2017-07-23T10:34:34.685Z,85
2017-07-23T10:35:00.170Z,90
2017-07-23T10:35:25.632Z,90
2017-07-23T10:35:51.097Z,90
2017-07-23T10:36:16.609Z,90
2017-07-23T10:36:42.085Z,90
2017-07-23T10:37:07.548Z,95
2017-07-23T10:37:33.053Z,95
2017-07-23T10:37:58.502Z,100
2017-07-23T10:38:23.981Z,100
2017-07-23T10:38:49.432Z,105
2017-07-23T10:39:14.947Z,105
2017-07-23T10:39:40.425Z,105
2017-07-23T10:40:05.910Z,110
2017-07-23T10:40:31.415Z,115
2017-07-23T10:40:56.912Z,120
2017-07-23T10:41:22.378Z,130
2017-07-23T10:41:47.904Z,135
2017-07-23T10:42:13.364Z,140
2017-07-23T10:42:38.807Z,150
2017-07-23T10:43:04.297Z,160
2017-07-23T10:43:29.756Z,155
2017-07-23T10:43:55.203Z,160
2017-07-23T10:44:20.685Z,160
2017-07-23T10:44:46.162Z,165
2017-07-23T10:45:11.640Z,170
2017-07-23T10:45:37.099Z,180
2017-07-23T10:46:02.586Z,185
2017-07-23T10:46:28.068Z,200
2017-07-23T10:47:36.782Z,250
2017-07-23T10:48:02.264Z,265
2017-07-23T10:48:27.749Z,280
2017-07-23T10:48:53.241Z,290
2017-07-23T10:49:18.686Z,290
2017-07-23T10:49:44.199Z,285
2017-07-23T10:50:09.648Z,275
2017-07-23T10:50:35.110Z,260
2017-07-23T10:51:00.589Z,240
2017-07-23T10:51:26.074Z,210
2017-07-23T10:51:51.562Z,195
2017-07-23T10:52:17.051Z,180
2017-07-23T10:52:42.509Z,170
2017-07-23T10:53:07.962Z,160
2017-07-23T10:53:33.448Z,155
2017-07-23T10:53:58.918Z,145
2017-07-23T10:54:24.368Z,135
2017-07-23T10:54:49.837Z,110
2017-07-23T10:55:15.362Z,90
2017-07-23T10:55:40.825Z,65
2017-07-23T10:56:06.316Z,55
2017-07-23T10:56:31.785Z,45
2017-07-23T10:56:57.382Z,40
2017-07-23T10:57:22.880Z,35
2017-07-23T10:57:48.337Z,35
2017-07-23T10:58:13.841Z,35
2017-07-23T10:58:39.324Z,40
2017-07-23T10:59:04.793Z,40
2017-07-23T10:59:30.244Z,40
2017-07-23T10:59:55.733Z,45
2017-07-23T11:00:21.212Z,50
2017-07-23T11:00:46.674Z,50
2017-07-23T11:01:12.125Z,55
2017-07-23T11:01:37.605Z,60
2017-07-23T11:02:03.054Z,70
2017-07-23T11:02:28.526Z,80
2017-07-23T11:02:53.991Z,95
2017-07-23T11:03:19.428Z,115
2017-07-23T11:03:44.909Z,135
2017-07-23T11:04:10.370Z,150
2017-07-23T11:04:35.814Z,180
2017-07-23T11:05:01.278Z,195
2017-07-23T11:05:26.755Z,200
2017-07-23T11:05:52.223Z,200
2017-07-23T11:06:17.680Z,195
2017-07-23T11:06:43.140Z,185
2017-07-23T11:07:08.607Z,175
2017-07-23T11:07:34.057Z,165
2017-07-23T11:07:59.547Z,155
2017-07-23T11:08:25.021Z,150
2017-07-23T11:08:50.475Z,160
2017-07-23T11:09:15.946Z,165
2017-07-23T11:09:41.404Z,160
2017-07-23T11:10:06.896Z,165
2017-07-23T11:10:32.349Z,155
2017-07-23T11:10:57.819Z,160
2017-07-23T11:11:23.264Z,170
2017-07-23T11:11:48.746Z,180
2017-07-23T11:12:14.289Z,185
2017-07-23T11:12:39.710Z,185
2017-07-23T11:13:05.191Z,180
2017-07-23T11:13:30.649Z,175
2017-07-23T11:13:56.124Z,165
2017-07-23T11:14:21.554Z,165
2017-07-23T11:14:47.028Z,160
2017-07-23T11:15:12.483Z,150
2017-07-23T11:15:37.925Z,135
2017-07-23T11:16:03.390Z,120
2017-07-23T11:16:28.819Z,100
2017-07-23T11:16:54.293Z,85
2017-07-23T11:17:19.794Z,95
2017-07-23T11:17:45.285Z,115
2017-07-23T11:18:10.737Z,135
2017-07-23T11:18:36.222Z,155
2017-07-23T11:19:01.691Z,165
2017-07-23T11:19:27.187Z,175
2017-07-23T11:19:52.612Z,180
2017-07-23T11:20:18.078Z,175
2017-07-23T11:20:43.588Z,170
2017-07-23T11:21:09.023Z,165
2017-07-23T11:21:34.462Z,165
2017-07-23T11:21:59.996Z,170
2017-07-23T11:22:25.426Z,170
2017-07-23T11:22:50.866Z,175
2017-07-23T11:23:16.317Z,185
2017-07-23T11:23:41.861Z,200
2017-07-23T11:24:07.291Z,210
2017-07-23T11:24:32.749Z,220
2017-07-23T11:24:58.235Z,225
2017-07-23T11:25:23.685Z,230
2017-07-23T11:25:49.146Z,230
2017-07-23T11:26:14.615Z,240
2017-07-23T11:26:40.110Z,255
2017-07-23T11:27:05.567Z,270
2017-07-23T11:27:30.986Z,290
2017-07-23T11:27:56.437Z,300
2017-07-23T11:28:21.953Z,310
2017-07-23T11:28:47.426Z,315
2017-07-23T11:29:12.890Z,310
2017-07-23T11:29:38.352Z,295
2017-07-23T11:30:03.810Z,275
2017-07-23T11:30:29.267Z,265
2017-07-23T11:30:54.721Z,245
2017-07-23T11:31:20.193Z,230